createdAt,value
2019-05-13T00:02:04.775Z,83.00
2019-05-13T00:04:34.320Z,83.00
2019-05-13T00:07:04.721Z,83.60
2019-05-13T00:09:34.366Z,83.10
2019-05-13T00:12:04.669Z,83.20
2019-05-13T00:14:34.625Z,83.10
2019-05-13T00:17:04.381Z,83.00
2019-05-13T00:19:34.019Z,83.10
2019-05-13T00:22:03.940Z,83.00
2019-05-13T00:24:34.016Z,83.00
2019-05-13T00:27:04.016Z,83.20
2019-05-13T00:29:34.118Z,83.20
2019-05-13T00:32:04.702Z,83.10
2019-05-13T00:34:34.565Z,83.20
2019-05-13T00:37:11.222Z,83.30
2019-05-13T00:39:35.111Z,83.40
2019-05-13T00:42:04.644Z,83.10
2019-05-13T00:44:34.094Z,83.00
2019-05-13T00:47:04.416Z,83.00
2019-05-13T00:49:34.648Z,83.00
2019-05-13T00:52:04.181Z,83.00
2019-05-13T00:54:34.210Z,83.00
2019-05-13T00:57:04.284Z,82.90
2019-05-13T00:59:34.108Z,82.70
2019-05-13T01:02:03.887Z,82.50
2019-05-13T01:04:33.881Z,82.50
2019-05-13T01:07:04.360Z,82.50
2019-05-13T01:09:34.369Z,82.70
2019-05-13T01:12:04.492Z,83.10
2019-05-13T01:14:34.320Z,82.10
2019-05-13T01:17:04.097Z,82.00
2019-05-13T01:19:34.181Z,81.80
2019-05-13T01:22:03.941Z,81.70
2019-05-13T01:24:33.911Z,81.40
2019-05-13T01:27:04.150Z,81.30
2019-05-13T01:29:34.382Z,81.20
2019-05-13T01:32:04.557Z,81.10
2019-05-13T01:34:34.196Z,80.80
2019-05-13T01:37:04.257Z,79.70
2019-05-13T01:39:34.967Z,79.50
2019-05-13T01:42:04.710Z,79.80
2019-05-13T01:44:34.140Z,78.60
2019-05-13T01:47:04.601Z,78.40
2019-05-13T01:49:34.284Z,78.40
2019-05-13T01:52:04.080Z,78.50
2019-05-13T01:54:34.007Z,78.60
2019-05-13T01:57:04.505Z,78.80
2019-05-13T01:59:34.752Z,78.80
2019-05-13T02:02:04.574Z,78.90
2019-05-13T02:04:33.931Z,79.10
2019-05-13T02:07:04.027Z,79.40
2019-05-13T02:09:34.127Z,79.80
2019-05-13T02:12:04.947Z,80.10
2019-05-13T02:14:34.467Z,80.20
2019-05-13T02:17:04.381Z,80.10
2019-05-13T02:19:33.878Z,80.00
2019-05-13T02:22:03.900Z,80.00
2019-05-13T02:24:34.232Z,80.10
2019-05-13T02:27:04.078Z,79.80
2019-05-13T02:29:34.490Z,79.90
2019-05-13T02:32:04.111Z,80.10
2019-05-13T02:34:33.548Z,80.20
2019-05-13T02:37:03.540Z,80.00
2019-05-13T02:39:33.200Z,80.20
2019-05-13T02:42:03.901Z,80.30
2019-05-13T02:44:33.641Z,80.40
2019-05-13T02:47:03.749Z,80.60
2019-05-13T02:49:33.354Z,80.70
2019-05-13T02:52:03.166Z,80.90
2019-05-13T02:54:34.086Z,81.30
2019-05-13T02:57:04.192Z,81.70
2019-05-13T02:59:34.006Z,82.10
2019-05-13T03:02:03.994Z,82.50
2019-05-13T03:04:33.665Z,82.70
2019-05-13T03:07:03.334Z,82.70
2019-05-13T03:09:32.873Z,83.20
2019-05-13T03:12:04.017Z,83.60
2019-05-13T03:14:33.367Z,84.00
2019-05-13T03:17:12.822Z,84.70
2019-05-13T03:19:43.257Z,85.00
2019-05-13T03:22:13.405Z,85.40
2019-05-13T03:24:43.135Z,85.40
2019-05-13T03:27:13.011Z,85.50
2019-05-13T03:29:43.227Z,85.40
2019-05-13T03:32:16.278Z,85.40
2019-05-13T03:34:45.923Z,85.60
2019-05-13T03:37:16.261Z,85.70
2019-05-13T03:39:47.643Z,85.80
2019-05-13T03:42:17.057Z,85.90
2019-05-13T03:44:48.444Z,86.70
2019-05-13T03:47:23.115Z,86.20
2019-05-13T03:49:56.265Z,86.20
2019-05-13T03:52:25.676Z,86.30
2019-05-13T03:54:55.482Z,86.40
2019-05-13T03:57:24.941Z,86.50
2019-05-13T03:59:54.336Z,86.70
2019-05-13T04:02:23.866Z,86.70
2019-05-13T04:04:53.417Z,86.90
2019-05-13T04:07:23.840Z,86.90
2019-05-13T04:09:53.366Z,87.00
2019-05-13T04:12:23.415Z,87.00
2019-05-13T04:14:54.002Z,86.90
2019-05-13T04:17:24.433Z,86.80
2019-05-13T04:19:53.898Z,86.80
2019-05-13T04:22:23.349Z,86.40
2019-05-13T04:24:53.204Z,86.10
2019-05-13T04:27:23.540Z,85.60
2019-05-13T04:29:53.279Z,85.40
2019-05-13T04:32:23.143Z,85.10
2019-05-13T04:34:53.121Z,84.80
2019-05-13T04:37:22.643Z,84.70
2019-05-13T04:39:56.167Z,84.40
2019-05-13T04:42:23.390Z,84.10
2019-05-13T04:44:53.447Z,84.00
2019-05-13T04:47:23.105Z,83.60
2019-05-13T04:49:53.352Z,83.40
2019-05-13T04:52:23.108Z,83.10
2019-05-13T04:54:52.938Z,82.60
2019-05-13T04:57:22.789Z,82.00
2019-05-13T04:59:55.033Z,81.10
2019-05-13T05:02:54.672Z,80.10
2019-05-13T05:05:52.917Z,79.30
2019-05-13T05:08:35.072Z,78.20
2019-05-13T05:11:52.726Z,77.10
2019-05-13T05:14:32.533Z,77.00
2019-05-13T05:17:27.720Z,75.20
2019-05-13T05:20:12.932Z,74.00
2019-05-13T05:23:21.440Z,73.30
2019-05-13T05:26:21.974Z,72.60
2019-05-13T05:29:21.685Z,72.10
2019-05-13T05:32:21.409Z,71.30
2019-05-13T05:35:52.044Z,71.00
2019-05-13T05:39:08.091Z,71.30
2019-05-13T05:41:38.462Z,70.70
2019-05-13T05:44:08.991Z,70.70
2019-05-13T05:46:42.465Z,69.80
2019-05-13T05:49:12.843Z,70.20
2019-05-13T05:51:43.095Z,70.20
2019-05-13T05:54:14.834Z,70.40
2019-05-13T05:56:45.148Z,70.00
2019-05-13T05:59:14.566Z,69.30
2019-05-13T06:01:47.345Z,69.30
2019-05-13T06:04:16.771Z,69.00
2019-05-13T06:06:47.744Z,68.50
2019-05-13T06:09:17.164Z,67.90
2019-05-13T06:11:47.443Z,68.00
2019-05-13T06:14:16.890Z,68.30
2019-05-13T06:16:46.280Z,67.00
2019-05-13T06:19:17.885Z,66.50
2019-05-13T06:21:46.814Z,66.50
2019-05-13T06:24:16.320Z,66.30
2019-05-13T06:26:45.911Z,66.10
2019-05-13T06:29:15.714Z,66.10
2019-05-13T06:31:45.095Z,66.20
2019-05-13T06:34:14.547Z,65.80
2019-05-13T06:36:44.419Z,65.40
2019-05-13T06:39:13.839Z,65.10
2019-05-13T06:41:43.236Z,64.80
2019-05-13T06:44:12.622Z,64.00
2019-05-13T06:46:42.431Z,63.40
2019-05-13T06:49:12.328Z,63.30
2019-05-13T06:51:41.941Z,62.80
2019-05-13T06:54:11.493Z,62.10
2019-05-13T06:56:42.787Z,62.20
2019-05-13T06:59:12.059Z,61.90
2019-05-13T07:01:42.363Z,61.80
2019-05-13T07:04:11.942Z,61.80
2019-05-13T07:06:41.878Z,61.80
2019-05-13T07:09:12.122Z,62.00
2019-05-13T07:11:41.747Z,62.10
2019-05-13T07:14:12.792Z,62.10
2019-05-13T07:16:42.320Z,61.80
2019-05-13T07:19:12.106Z,61.50
2019-05-13T07:21:41.820Z,61.20
2019-05-13T07:24:12.636Z,61.30
2019-05-13T07:26:42.387Z,61.00
2019-05-13T07:29:13.007Z,60.20
2019-05-13T07:31:42.944Z,59.80
2019-05-13T07:34:12.362Z,58.90
2019-05-13T07:36:42.301Z,58.00
2019-05-13T07:39:12.066Z,58.20
2019-05-13T07:41:43.048Z,58.20
2019-05-13T07:44:12.518Z,58.00
2019-05-13T07:46:42.739Z,57.40
2019-05-13T07:49:12.263Z,57.60
2019-05-13T07:51:42.160Z,57.60
2019-05-13T07:54:11.636Z,57.60
2019-05-13T07:56:42.609Z,57.70
2019-05-13T07:59:12.496Z,57.90
2019-05-13T08:01:42.016Z,57.90
2019-05-13T08:04:21.410Z,57.80
2019-05-13T08:06:42.401Z,57.70
2019-05-13T08:09:12.818Z,57.40
2019-05-13T08:12:00.551Z,57.30
2019-05-13T08:14:13.338Z,57.20
2019-05-13T08:16:42.877Z,57.10
2019-05-13T08:19:12.512Z,56.50
2019-05-13T08:21:42.062Z,56.30
2019-05-13T08:24:12.223Z,55.70
2019-05-13T08:26:44.932Z,54.70
2019-05-13T08:29:12.771Z,54.40
2019-05-13T08:31:42.173Z,53.60
2019-05-13T08:34:12.054Z,53.00
2019-05-13T08:36:42.671Z,53.20
2019-05-13T08:39:12.782Z,52.90
2019-05-13T08:41:42.502Z,53.10
2019-05-13T08:44:12.511Z,53.00
2019-05-13T08:46:42.013Z,53.00
2019-05-13T08:49:12.058Z,53.10
2019-05-13T08:51:42.372Z,53.30
2019-05-13T08:54:11.907Z,52.80
2019-05-13T08:56:41.778Z,52.50
2019-05-13T08:59:11.647Z,52.20
2019-05-13T09:01:42.722Z,52.40
2019-05-13T09:04:12.305Z,51.70
2019-05-13T09:06:42.007Z,51.30
2019-05-13T09:09:11.696Z,51.20
2019-05-13T09:11:42.234Z,51.20
2019-05-13T09:14:11.767Z,51.40
2019-05-13T09:16:42.025Z,51.00
2019-05-13T09:19:15.865Z,50.80
2019-05-13T09:21:42.577Z,49.70
2019-05-13T09:24:21.678Z,47.90
2019-05-13T09:26:43.293Z,47.00
2019-05-13T09:29:12.704Z,47.00
2019-05-13T09:31:42.106Z,46.40
2019-05-13T09:34:12.291Z,46.20
2019-05-13T09:36:42.013Z,46.60
2019-05-13T09:39:12.620Z,46.80
2019-05-13T09:41:44.670Z,47.00
2019-05-13T09:44:13.289Z,47.40
2019-05-13T09:46:42.775Z,47.20
2019-05-13T09:49:19.463Z,47.40
2019-05-13T09:51:43.115Z,46.20
2019-05-13T09:54:12.535Z,45.80
2019-05-13T09:56:41.952Z,45.10
2019-05-13T09:59:11.884Z,44.00
2019-05-13T10:01:42.497Z,43.20
2019-05-13T10:04:12.086Z,42.80
2019-05-13T10:06:42.237Z,42.90
2019-05-13T10:09:12.603Z,42.60
2019-05-13T10:11:42.122Z,42.50
2019-05-13T10:14:11.854Z,42.00
2019-05-13T10:16:42.577Z,42.10
2019-05-13T10:19:12.842Z,40.50
2019-05-13T10:21:42.367Z,40.70
2019-05-13T10:24:12.716Z,41.00
2019-05-13T10:26:43.292Z,40.50
2019-05-13T10:29:12.911Z,40.00
2019-05-13T10:31:42.454Z,37.70
2019-05-13T10:34:14.062Z,38.20
2019-05-13T10:36:42.978Z,37.80
2019-05-13T10:39:12.498Z,37.40
2019-05-13T10:41:42.470Z,37.60
2019-05-13T10:44:12.375Z,37.90
2019-05-13T10:46:42.526Z,38.30
2019-05-13T10:49:12.418Z,38.50
2019-05-13T10:51:42.081Z,39.00
2019-05-13T10:54:12.614Z,39.00
2019-05-13T10:56:43.104Z,38.90
2019-05-13T10:59:12.814Z,37.90
2019-05-13T11:01:42.762Z,37.50
2019-05-13T11:04:13.592Z,37.20
2019-05-13T11:06:43.300Z,36.40
2019-05-13T11:09:13.276Z,36.60
2019-05-13T11:11:42.665Z,37.20
2019-05-13T11:14:15.490Z,36.80
2019-05-13T11:16:43.160Z,36.30
2019-05-13T11:19:12.676Z,35.90
2019-05-13T11:21:43.387Z,35.90
2019-05-13T11:24:13.397Z,35.70
2019-05-13T11:26:42.789Z,36.40
2019-05-13T11:29:12.357Z,35.40
2019-05-13T11:31:42.767Z,35.00
2019-05-13T11:34:12.469Z,35.70
2019-05-13T11:36:43.329Z,36.50
2019-05-13T11:39:13.245Z,36.70
2019-05-13T11:41:42.956Z,36.70
2019-05-13T11:44:16.771Z,36.90
2019-05-13T11:46:43.644Z,36.90
2019-05-13T11:49:13.051Z,36.70
2019-05-13T11:51:42.782Z,36.60
2019-05-13T11:54:14.036Z,36.20
2019-05-13T11:56:49.144Z,35.70
2019-05-13T11:59:14.399Z,35.20
2019-05-13T12:01:43.956Z,35.50
2019-05-13T12:04:13.334Z,35.70
2019-05-13T12:06:47.976Z,35.50
2019-05-13T12:09:14.071Z,34.90
2019-05-13T12:11:43.514Z,35.20
2019-05-13T12:14:37.048Z,34.90
2019-05-13T12:16:43.955Z,34.80
2019-05-13T12:19:13.389Z,34.50
2019-05-13T12:21:46.435Z,34.70
2019-05-13T12:24:13.805Z,34.40
2019-05-13T12:26:43.664Z,34.40
2019-05-13T12:29:18.583Z,33.80
2019-05-13T12:31:44.152Z,33.30
2019-05-13T12:34:13.855Z,32.70
2019-05-13T12:36:43.628Z,33.10
2019-05-13T12:39:14.339Z,32.70
2019-05-13T12:41:44.006Z,31.90
2019-05-13T12:44:13.397Z,32.00
2019-05-13T12:46:49.919Z,32.00
2019-05-13T12:49:14.626Z,32.10
2019-05-13T12:51:44.268Z,32.10
2019-05-13T12:54:14.301Z,32.00
2019-05-13T12:56:43.841Z,32.30
2019-05-13T12:59:13.654Z,32.60
2019-05-13T13:01:43.030Z,32.60
2019-05-13T13:04:12.691Z,32.80
2019-05-13T13:06:45.521Z,32.60
2019-05-13T13:09:13.191Z,32.80
2019-05-13T13:11:43.960Z,33.20
2019-05-13T13:14:15.474Z,33.20
2019-05-13T13:16:44.447Z,33.50
2019-05-13T13:19:15.048Z,33.70
2019-05-13T13:21:44.675Z,33.30
2019-05-13T13:24:14.117Z,32.80
2019-05-13T13:26:43.533Z,32.20
2019-05-13T13:29:12.920Z,31.60
2019-05-13T13:31:43.487Z,31.50
2019-05-13T13:34:18.211Z,31.80
2019-05-13T13:36:46.078Z,31.80
2019-05-13T13:39:15.473Z,31.10
2019-05-13T13:41:45.351Z,31.40
2019-05-13T13:44:14.804Z,31.30
2019-05-13T13:46:49.336Z,31.70
2019-05-13T13:49:15.288Z,31.30
2019-05-13T13:51:45.185Z,31.20
2019-05-13T13:54:14.909Z,30.60
2019-05-13T13:56:44.747Z,30.00
2019-05-13T13:59:14.390Z,30.10
2019-05-13T14:01:43.907Z,30.20
2019-05-13T14:04:16.543Z,30.50
2019-05-13T14:09:15.421Z,31.20
2019-05-13T14:11:44.831Z,31.60
2019-05-13T14:14:14.195Z,31.20
2019-05-13T14:16:46.647Z,30.90
2019-05-13T14:19:14.704Z,30.40
2019-05-13T14:21:44.079Z,30.10
2019-05-13T14:24:13.521Z,30.00
2019-05-13T14:26:43.552Z,30.20
2019-05-13T14:29:13.075Z,30.70
2019-05-13T14:31:42.770Z,30.40
2019-05-13T14:34:12.172Z,30.00
2019-05-13T14:36:41.543Z,29.30
2019-05-13T14:39:12.008Z,28.90
2019-05-13T14:41:42.536Z,28.60
2019-05-13T14:44:12.614Z,28.90
2019-05-13T14:46:47.620Z,29.30
2019-05-13T14:49:13.201Z,29.70
2019-05-13T14:51:42.571Z,30.00
2019-05-13T14:54:12.039Z,30.00
2019-05-13T14:56:41.962Z,30.00
2019-05-13T14:59:11.949Z,29.90
2019-05-13T15:01:41.535Z,29.50
2019-05-13T15:04:12.174Z,28.90
2019-05-13T15:06:41.880Z,28.60
2019-05-13T15:09:12.542Z,28.30
2019-05-13T15:11:42.227Z,28.40
2019-05-13T15:14:11.845Z,28.10
2019-05-13T15:16:42.379Z,27.60
2019-05-13T15:19:12.190Z,27.20
2019-05-13T15:21:41.590Z,26.90
2019-05-13T15:24:12.384Z,26.80
2019-05-13T15:26:42.287Z,27.20
2019-05-13T15:29:11.869Z,28.10
2019-05-13T15:31:42.143Z,28.70
2019-05-13T15:34:11.741Z,29.00
2019-05-13T15:36:41.963Z,29.40
2019-05-13T15:39:11.980Z,29.20
2019-05-13T15:41:41.952Z,28.40
2019-05-13T15:44:11.576Z,27.40
2019-05-13T15:46:41.714Z,26.30
2019-05-13T15:49:12.370Z,25.60
2019-05-13T15:51:42.367Z,26.00
2019-05-13T15:54:15.377Z,26.60
2019-05-13T15:56:42.855Z,27.40
2019-05-13T15:59:12.694Z,28.00
2019-05-13T16:01:42.258Z,28.20
2019-05-13T16:04:13.504Z,27.00
2019-05-13T16:06:42.832Z,25.40
2019-05-13T16:09:12.220Z,24.20
2019-05-13T16:11:41.672Z,23.20
2019-05-13T16:14:11.847Z,22.40
2019-05-13T16:16:41.950Z,21.70
2019-05-13T16:19:11.403Z,21.10
2019-05-13T16:21:41.654Z,20.60
2019-05-13T16:24:12.055Z,20.30
2019-05-13T16:26:42.736Z,19.90
2019-05-13T16:29:12.767Z,19.70
2019-05-13T16:31:42.386Z,19.50
2019-05-13T16:34:13.494Z,19.70
2019-05-13T16:36:43.172Z,20.60
2019-05-13T16:39:12.685Z,20.90
2019-05-13T16:41:42.821Z,21.10
2019-05-13T16:44:12.339Z,20.50
2019-05-13T16:46:42.431Z,20.40
2019-05-13T16:49:12.357Z,20.20
2019-05-13T16:51:42.713Z,19.90
2019-05-13T16:54:12.187Z,19.50
2019-05-13T16:56:41.998Z,19.10
2019-05-13T16:59:11.572Z,18.90
2019-05-13T17:01:42.004Z,18.80
2019-05-13T17:04:12.645Z,18.60
2019-05-13T17:06:42.112Z,18.50
2019-05-13T17:09:11.724Z,18.60
2019-05-13T17:11:41.464Z,19.10
2019-05-13T17:14:10.992Z,20.10
2019-05-13T17:16:41.370Z,21.00
2019-05-13T17:19:12.082Z,22.00
2019-05-13T17:21:41.734Z,23.10
2019-05-13T17:24:12.476Z,24.00
2019-05-13T17:26:42.030Z,24.70
2019-05-13T17:29:12.178Z,25.30
2019-05-13T17:31:41.870Z,26.00
2019-05-13T17:34:12.121Z,26.60
2019-05-13T17:36:42.088Z,26.90
2019-05-13T17:39:12.459Z,27.40
2019-05-13T17:41:42.277Z,27.70
2019-05-13T17:44:11.868Z,28.00
2019-05-13T17:46:41.902Z,28.30
2019-05-13T17:49:11.956Z,28.60
2019-05-13T17:51:42.458Z,28.80
2019-05-13T17:54:12.232Z,29.30
2019-05-13T17:56:41.862Z,29.60
2019-05-13T17:59:11.688Z,29.80
2019-05-13T18:01:41.485Z,30.00
2019-05-13T18:04:11.726Z,30.40
2019-05-13T18:06:41.875Z,30.90
2019-05-13T18:09:12.114Z,31.30
2019-05-13T18:11:41.851Z,31.60
2019-05-13T18:14:11.626Z,32.00
2019-05-13T18:16:41.955Z,32.20
2019-05-13T18:19:12.036Z,32.50
2019-05-13T18:21:42.404Z,32.80
2019-05-13T18:24:12.159Z,33.30
2019-05-13T18:26:42.069Z,33.60
2019-05-13T18:29:12.513Z,34.00
2019-05-13T18:31:42.255Z,34.30
2019-05-13T18:34:12.263Z,34.50
2019-05-13T18:36:42.538Z,34.80
2019-05-13T18:39:12.514Z,35.00
2019-05-13T18:41:42.025Z,35.40
2019-05-13T18:44:12.252Z,35.60
2019-05-13T18:46:42.061Z,36.00
2019-05-13T18:49:11.992Z,36.30
2019-05-13T18:51:42.314Z,36.60
2019-05-13T18:54:12.123Z,36.90
2019-05-13T18:56:41.928Z,37.20
2019-05-13T18:59:12.554Z,37.30
2019-05-13T19:01:42.038Z,37.40
2019-05-13T19:04:11.624Z,37.40
2019-05-13T19:06:42.350Z,37.70
2019-05-13T19:09:11.918Z,37.90
2019-05-13T19:11:42.735Z,38.20
2019-05-13T19:14:12.505Z,38.30
2019-05-13T19:16:42.366Z,38.40
2019-05-13T19:19:15.769Z,38.60
2019-05-13T19:21:42.879Z,38.80
2019-05-13T19:24:13.411Z,38.90
2019-05-13T19:26:43.036Z,38.80
2019-05-13T19:29:12.353Z,38.70
2019-05-13T19:31:41.979Z,38.70
2019-05-13T19:34:12.489Z,38.70
2019-05-13T19:36:42.196Z,38.80
2019-05-13T19:39:11.623Z,39.00
2019-05-13T19:41:42.358Z,39.20
2019-05-13T19:44:11.951Z,39.20
2019-05-13T19:46:42.119Z,39.30
2019-05-13T19:49:12.307Z,39.20
2019-05-13T19:51:42.755Z,39.20
2019-05-13T19:54:12.131Z,39.30
2019-05-13T19:56:41.512Z,39.20
2019-05-13T19:59:12.424Z,39.30
2019-05-13T20:01:42.422Z,39.60
2019-05-13T20:04:11.934Z,39.60
2019-05-13T20:06:41.593Z,39.70
2019-05-13T20:09:11.023Z,39.80
2019-05-13T20:11:42.032Z,40.00
2019-05-13T20:14:12.236Z,40.10
2019-05-13T20:16:41.861Z,40.20
2019-05-13T20:19:11.803Z,40.50
2019-05-13T20:21:42.623Z,40.70
2019-05-13T20:24:12.089Z,41.00
2019-05-13T20:26:41.623Z,41.10
2019-05-13T20:29:12.344Z,41.20
2019-05-13T20:31:41.818Z,41.50
2019-05-13T20:34:12.014Z,41.50
2019-05-13T20:36:42.257Z,41.60
2019-05-13T20:39:11.799Z,41.70
2019-05-13T20:41:41.556Z,42.00
2019-05-13T20:44:11.006Z,42.20
2019-05-13T20:46:42.306Z,42.30
2019-05-13T20:49:12.009Z,42.50
2019-05-13T20:51:41.677Z,42.60
2019-05-13T20:54:11.451Z,42.70
2019-05-13T20:56:42.241Z,42.70
2019-05-13T20:59:11.788Z,42.90
2019-05-13T21:01:41.866Z,42.90
2019-05-13T21:04:12.375Z,43.00
2019-05-13T21:06:42.356Z,43.10
2019-05-13T21:09:16.701Z,43.20
2019-05-13T21:11:42.876Z,43.20
2019-05-13T21:14:12.218Z,43.30
2019-05-13T21:16:41.828Z,43.30
2019-05-13T21:19:12.453Z,43.40
2019-05-13T21:21:41.907Z,43.50
2019-05-13T21:24:11.283Z,43.70
2019-05-13T21:26:42.056Z,43.70
2019-05-13T21:29:11.468Z,43.70
2019-05-13T21:31:41.464Z,43.80
2019-05-13T21:34:11.832Z,43.90
2019-05-13T21:36:41.486Z,44.00
2019-05-13T21:39:12.413Z,44.00
2019-05-13T21:41:41.995Z,44.00
2019-05-13T21:44:11.939Z,44.00
2019-05-13T21:46:41.450Z,44.10
2019-05-13T21:49:11.841Z,44.10
2019-05-13T21:51:41.880Z,44.20
2019-05-13T21:54:11.953Z,44.20
2019-05-13T21:56:42.635Z,44.30
2019-05-13T21:59:12.263Z,44.40
2019-05-13T22:01:42.302Z,44.50
2019-05-13T22:04:12.391Z,45.10
2019-05-13T22:06:41.937Z,44.60
2019-05-13T22:09:12.135Z,44.90
2019-05-13T22:11:42.021Z,45.00
2019-05-13T22:14:11.585Z,45.10
2019-05-13T22:16:41.422Z,45.10
2019-05-13T22:19:12.191Z,45.20
2019-05-13T22:21:42.376Z,45.20
2019-05-13T22:24:11.918Z,45.20
2019-05-13T22:26:41.937Z,45.40
2019-05-13T22:29:11.527Z,45.50
2019-05-13T22:31:41.992Z,45.60
2019-05-13T22:34:12.128Z,45.80
2019-05-13T22:36:41.613Z,45.90
2019-05-13T22:39:11.526Z,46.20
2019-05-13T22:41:42.096Z,46.40
2019-05-13T22:44:11.950Z,46.80
2019-05-13T22:46:41.511Z,46.80
2019-05-13T22:49:11.664Z,46.90
2019-05-13T22:51:41.399Z,47.10
2019-05-13T22:54:11.977Z,47.40
2019-05-13T22:56:41.404Z,47.50
2019-05-13T22:59:12.242Z,47.90
2019-05-13T23:01:42.098Z,48.00
2019-05-13T23:04:11.645Z,48.20
2019-05-13T23:06:41.034Z,48.40
2019-05-13T23:09:12.367Z,48.70
2019-05-13T23:11:41.888Z,49.10
2019-05-13T23:14:13.466Z,49.40
2019-05-13T23:16:42.395Z,49.70
2019-05-13T23:19:11.769Z,50.00
2019-05-13T23:21:41.828Z,50.30
2019-05-13T23:24:11.448Z,50.70
2019-05-13T23:26:42.294Z,50.90
2019-05-13T23:29:11.767Z,51.00
2019-05-13T23:31:41.606Z,51.30
2019-05-13T23:34:12.031Z,51.50
2019-05-13T23:36:42.348Z,51.60
2019-05-13T23:39:11.909Z,51.80
2019-05-13T23:41:41.730Z,51.80
2019-05-13T23:44:23.797Z,51.90
2019-05-13T23:46:42.199Z,51.80
2019-05-13T23:49:11.980Z,51.70
2019-05-13T23:51:41.470Z,51.60
2019-05-13T23:54:12.259Z,51.60
2019-05-13T23:56:41.837Z,51.70
2019-05-13T23:59:11.510Z,51.70
